createdAt,value
2023-01-01T00:04:13.158Z,10.30
2023-01-01T00:06:41.983Z,8.98
2023-01-01T00:11:56.294Z,8.73
2023-01-01T00:16:55.778Z,9.20
2023-01-01T00:19:25.736Z,9.48
2023-01-01T00:21:54.232Z,8.25
2023-01-01T00:24:22.775Z,8.25
2023-01-01T00:26:51.312Z,9.35
2023-01-01T00:29:20.730Z,8.98
2023-01-01T00:31:49.199Z,7.60
2023-01-01T00:34:17.693Z,8.45
2023-01-01T00:36:47.651Z,8.55
2023-01-01T00:39:16.375Z,8.98
2023-01-01T00:41:44.785Z,8.65
2023-01-01T00:44:14.399Z,8.18
2023-01-01T00:46:43.040Z,8.55
2023-01-01T00:49:11.550Z,9.40
2023-01-01T00:51:40.130Z,8.88
2023-01-01T00:54:10.052Z,8.48
2023-01-01T00:56:38.781Z,7.90
2023-01-01T01:01:35.911Z,7.13
2023-01-01T01:04:04.569Z,8.43
2023-01-01T01:06:33.040Z,8.68
2023-01-01T01:09:01.465Z,8.60
2023-01-01T01:13:59.659Z,9.20
2023-01-01T01:16:31.076Z,9.38
2023-01-01T01:19:02.120Z,8.50
2023-01-01T01:21:35.555Z,8.27
2023-01-01T01:24:05.204Z,8.50
2023-01-01T01:26:36.865Z,9.00
2023-01-01T01:29:05.794Z,8.60
2023-01-01T01:31:35.873Z,8.98
2023-01-01T01:34:06.022Z,8.32
2023-01-01T01:36:34.676Z,9.32
2023-01-01T01:39:03.163Z,9.07
2023-01-01T01:41:31.759Z,7.85
2023-01-01T01:44:03.532Z,7.50
2023-01-01T01:46:36.079Z,9.15
2023-01-01T01:49:14.615Z,8.85
2023-01-01T01:51:44.255Z,8.07
2023-01-01T01:54:16.132Z,7.38
2023-01-01T01:56:51.047Z,6.80
2023-01-01T01:59:24.231Z,7.22
2023-01-01T02:01:54.515Z,7.15
2023-01-01T02:04:23.779Z,7.43
2023-01-01T02:06:54.425Z,8.00
2023-01-01T02:09:23.281Z,7.28
2023-01-01T02:14:24.003Z,7.40
2023-01-01T02:16:57.943Z,7.53
2023-01-01T02:19:45.995Z,8.13
2023-01-01T02:22:18.375Z,7.13
2023-01-01T02:25:06.224Z,6.60
2023-01-01T02:27:49.634Z,7.40
2023-01-01T02:30:20.359Z,5.65
2023-01-01T02:32:52.749Z,6.00
2023-01-01T02:35:38.851Z,6.28
2023-01-01T02:38:14.039Z,6.03
2023-01-01T02:40:46.561Z,9.27
2023-01-01T02:43:17.843Z,6.13
2023-01-01T02:45:51.580Z,6.03
2023-01-01T02:48:41.803Z,6.35
2023-01-01T02:51:23.304Z,6.32
2023-01-01T02:54:01.133Z,6.10
2023-01-01T02:56:37.944Z,6.07
2023-01-01T02:59:35.683Z,6.28
2023-01-01T03:02:18.842Z,5.60
2023-01-01T03:04:58.934Z,5.43
2023-01-01T03:07:37.408Z,5.95
2023-01-01T03:10:15.232Z,5.47
2023-01-01T03:12:51.938Z,5.88
2023-01-01T03:15:29.732Z,6.40
2023-01-01T03:18:06.422Z,5.80
2023-01-01T03:20:39.594Z,5.95
2023-01-01T03:23:11.551Z,6.00
2023-01-01T03:25:44.698Z,6.20
2023-01-01T03:28:18.718Z,6.07
2023-01-01T03:30:49.117Z,5.85
2023-01-01T03:33:22.823Z,6.70
2023-01-01T03:35:57.214Z,6.10
2023-01-01T03:38:31.127Z,6.28
2023-01-01T03:41:04.488Z,6.10
2023-01-01T03:43:43.566Z,6.10
2023-01-01T03:46:14.233Z,5.63
2023-01-01T03:49:02.998Z,5.95
2023-01-01T03:51:50.767Z,6.93
2023-01-01T03:54:29.888Z,6.10
2023-01-01T03:57:03.731Z,5.80
2023-01-01T03:59:40.650Z,6.45
2023-01-01T04:02:11.577Z,6.32
2023-01-01T04:04:42.113Z,5.90
2023-01-01T04:07:15.209Z,6.25
2023-01-01T04:09:50.179Z,5.97
2023-01-01T04:12:20.466Z,5.63
2023-01-01T04:14:49.464Z,6.35
2023-01-01T04:19:53.110Z,5.88
2023-01-01T04:22:23.846Z,6.13
2023-01-01T04:24:52.370Z,5.35
2023-01-01T04:27:21.431Z,6.32
2023-01-01T04:29:52.603Z,5.93
2023-01-01T04:32:22.173Z,6.35
2023-01-01T04:34:52.229Z,6.40
2023-01-01T04:37:20.685Z,6.50
2023-01-01T04:39:49.020Z,6.68
2023-01-01T04:42:17.616Z,6.85
2023-01-01T04:44:46.048Z,6.15
2023-01-01T04:47:14.558Z,6.63
2023-01-01T04:49:43.019Z,6.32
2023-01-01T04:52:12.984Z,6.35
2023-01-01T04:54:41.485Z,7.47
2023-01-01T04:57:10.760Z,6.60
2023-01-01T04:59:39.419Z,6.75
2023-01-01T05:02:08.052Z,7.07
2023-01-01T05:07:04.931Z,6.93
2023-01-01T05:12:03.079Z,7.75
2023-01-01T05:14:31.619Z,7.28
2023-01-01T05:16:59.990Z,7.05
2023-01-01T05:19:28.567Z,7.05
2023-01-01T05:21:57.010Z,7.45
2023-01-01T05:24:25.404Z,6.70
2023-01-01T05:26:55.289Z,6.70
2023-01-01T05:29:25.783Z,6.28
2023-01-01T05:31:54.542Z,6.10
2023-01-01T05:36:51.730Z,6.32
2023-01-01T05:39:20.219Z,6.05
2023-01-01T05:41:48.833Z,6.15
2023-01-01T05:44:19.566Z,5.00
2023-01-01T05:46:48.245Z,6.07
2023-01-01T05:49:16.652Z,6.28
2023-01-01T05:51:45.123Z,5.70
2023-01-01T05:56:41.557Z,6.28
2023-01-01T05:59:11.501Z,5.28
2023-01-01T06:01:45.604Z,5.65
2023-01-01T06:04:15.319Z,6.32
2023-01-01T06:06:43.852Z,6.68
2023-01-01T06:09:12.911Z,5.13
2023-01-01T06:11:41.356Z,5.75
2023-01-01T06:14:10.080Z,5.53
2023-01-01T06:16:38.569Z,6.07
2023-01-01T06:19:08.601Z,5.82
2023-01-01T06:21:37.149Z,6.22
2023-01-01T06:24:06.483Z,6.90
2023-01-01T06:26:35.466Z,6.18
2023-01-01T06:34:10.812Z,5.90
2023-01-01T06:36:39.595Z,6.28
2023-01-01T06:39:08.067Z,6.20
2023-01-01T06:41:36.587Z,6.88
2023-01-01T06:44:05.760Z,6.82
2023-01-01T06:46:36.399Z,6.45
2023-01-01T06:49:06.628Z,6.57
2023-01-01T06:51:40.435Z,6.65
2023-01-01T06:54:09.549Z,6.68
2023-01-01T06:56:38.948Z,6.47
2023-01-01T06:59:08.185Z,6.88
2023-01-01T07:01:44.363Z,7.78
2023-01-01T07:04:16.485Z,6.80
2023-01-01T07:06:46.434Z,6.30
2023-01-01T07:09:14.898Z,7.15
2023-01-01T07:14:12.044Z,6.32
2023-01-01T07:16:40.602Z,6.50
2023-01-01T07:21:43.668Z,6.80
2023-01-01T07:24:15.762Z,5.78
2023-01-01T07:26:44.674Z,7.07
2023-01-01T07:31:43.641Z,6.93
2023-01-01T07:34:15.901Z,6.05
2023-01-01T07:36:47.164Z,6.50
2023-01-01T07:39:21.707Z,6.40
2023-01-01T07:41:50.289Z,7.25
2023-01-01T07:44:18.875Z,6.30
2023-01-01T07:46:47.459Z,6.63
2023-01-01T07:49:16.130Z,6.03
2023-01-01T07:54:12.908Z,6.85
2023-01-01T07:56:43.034Z,6.93
2023-01-01T07:59:17.003Z,6.25
2023-01-01T08:01:48.855Z,6.70
2023-01-01T08:04:17.293Z,6.30
2023-01-01T08:06:45.857Z,6.95
2023-01-01T08:09:14.639Z,7.57
2023-01-01T08:11:45.783Z,7.28
2023-01-01T08:14:15.309Z,6.88
2023-01-01T08:16:43.783Z,7.15
2023-01-01T08:19:15.046Z,7.13
2023-01-01T08:21:43.817Z,7.50
2023-01-01T08:24:12.314Z,6.97
2023-01-01T08:26:41.084Z,7.55
2023-01-01T08:31:40.237Z,7.65
2023-01-01T08:34:08.710Z,7.32
2023-01-01T08:36:39.698Z,7.40
2023-01-01T08:39:08.827Z,7.30
2023-01-01T08:41:38.113Z,8.00
2023-01-01T08:44:06.828Z,8.15
2023-01-01T08:46:36.821Z,8.27
2023-01-01T08:49:05.672Z,8.80
2023-01-01T08:51:34.226Z,8.23
2023-01-01T08:54:02.785Z,8.43
2023-01-01T08:56:31.370Z,8.60
2023-01-01T08:59:04.383Z,8.82
2023-01-01T09:01:33.295Z,8.73
2023-01-01T09:04:03.368Z,9.48
2023-01-01T09:06:32.061Z,8.50
2023-01-01T09:09:19.877Z,9.07
2023-01-01T09:11:55.100Z,9.68
2023-01-01T09:14:24.516Z,8.93
2023-01-01T09:16:54.974Z,8.15
2023-01-01T09:19:25.134Z,7.40
2023-01-01T09:21:54.176Z,8.10
2023-01-01T09:24:22.833Z,7.93
2023-01-01T09:29:20.988Z,8.05
2023-01-01T09:31:50.032Z,8.65
2023-01-01T09:34:22.043Z,7.60
2023-01-01T09:36:53.216Z,8.07
2023-01-01T09:39:22.207Z,7.50
2023-01-01T09:42:18.199Z,8.75
2023-01-01T09:44:59.068Z,7.78
2023-01-01T09:47:32.806Z,8.73
2023-01-01T09:50:05.244Z,8.05
2023-01-01T09:52:45.263Z,7.65
2023-01-01T09:55:23.243Z,7.88
2023-01-01T09:57:56.574Z,8.50
2023-01-01T10:00:25.717Z,8.90
2023-01-01T10:03:28.558Z,8.40
2023-01-01T10:06:04.848Z,8.95
2023-01-01T10:08:50.150Z,9.70
2023-01-01T10:11:26.576Z,9.13
2023-01-01T10:14:00.165Z,8.85
2023-01-01T10:16:34.845Z,8.27
2023-01-01T10:19:14.551Z,8.18
2023-01-01T10:21:47.626Z,8.55
2023-01-01T10:24:35.835Z,9.15
2023-01-01T10:27:07.731Z,8.98
2023-01-01T10:29:43.200Z,8.82
2023-01-01T10:32:21.964Z,8.05
2023-01-01T10:34:52.997Z,8.35
2023-01-01T10:37:23.803Z,10.57
2023-01-01T10:39:53.851Z,9.68
2023-01-01T10:42:22.400Z,9.40
2023-01-01T10:44:54.017Z,7.78
2023-01-01T10:47:28.522Z,8.70
2023-01-01T10:49:59.711Z,8.27
2023-01-01T10:52:53.498Z,8.00
2023-01-01T10:55:31.105Z,8.18
2023-01-01T10:58:01.955Z,8.95
2023-01-01T11:00:33.705Z,9.15
2023-01-01T11:03:16.751Z,9.48
2023-01-01T11:06:37.900Z,8.88
2023-01-01T11:09:22.850Z,9.70
2023-01-01T11:12:07.161Z,9.75
2023-01-01T11:14:42.590Z,9.98
2023-01-01T11:17:13.102Z,9.43
2023-01-01T11:19:51.789Z,10.65
2023-01-01T11:22:46.735Z,9.98
2023-01-01T11:25:26.970Z,9.35
2023-01-01T11:28:22.186Z,10.60
2023-01-01T11:31:03.314Z,10.95
2023-01-01T11:33:39.222Z,9.73
2023-01-01T11:36:12.202Z,11.27
2023-01-01T11:39:12.781Z,12.32
2023-01-01T11:41:45.071Z,11.02
2023-01-01T11:44:24.451Z,10.77
2023-01-01T11:46:53.270Z,11.10
2023-01-01T11:52:38.649Z,11.02
2023-01-01T11:55:18.096Z,13.20
2023-01-01T11:57:56.762Z,11.60
2023-01-01T12:00:27.691Z,11.35
2023-01-01T12:03:02.190Z,10.05
2023-01-01T12:05:45.875Z,11.82
2023-01-01T12:08:24.377Z,11.65
2023-01-01T12:11:00.109Z,9.80
2023-01-01T12:13:41.883Z,10.75
2023-01-01T12:16:19.840Z,10.88
2023-01-01T12:19:01.766Z,10.70
2023-01-01T12:21:33.461Z,10.68
2023-01-01T12:27:34.606Z,10.57
2023-01-01T12:30:12.248Z,12.38
2023-01-01T12:33:14.139Z,9.98
2023-01-01T12:36:11.729Z,9.98
2023-01-01T12:39:29.436Z,11.02
2023-01-01T12:42:06.406Z,10.75
2023-01-01T12:44:42.924Z,10.45
2023-01-01T12:47:27.932Z,9.93
2023-01-01T12:50:12.272Z,9.32
2023-01-01T12:52:52.676Z,9.77
2023-01-01T12:55:46.655Z,10.02
2023-01-01T12:58:22.040Z,9.35
2023-01-01T13:00:58.252Z,9.55
2023-01-01T13:03:34.730Z,8.65
2023-01-01T13:06:08.100Z,9.43
2023-01-01T13:08:38.324Z,9.00
2023-01-01T13:11:08.902Z,9.40
2023-01-01T13:13:38.034Z,9.88
2023-01-01T13:16:07.630Z,11.88
2023-01-01T13:18:37.924Z,9.05
2023-01-01T13:21:22.673Z,8.43
2023-01-01T13:24:02.889Z,8.90
2023-01-01T13:26:40.691Z,9.70
2023-01-01T13:29:47.520Z,10.13
2023-01-01T13:32:17.113Z,7.83
2023-01-01T13:35:16.802Z,8.15
2023-01-01T13:37:49.922Z,7.00
2023-01-01T13:40:51.229Z,7.57
2023-01-01T13:43:31.954Z,7.60
2023-01-01T13:46:13.541Z,5.97
2023-01-01T13:49:21.848Z,6.70
2023-01-01T13:52:34.258Z,7.40
2023-01-01T13:55:30.209Z,7.43
2023-01-01T13:58:27.492Z,7.40
2023-01-01T14:01:08.417Z,6.55
2023-01-01T14:03:42.658Z,6.55
2023-01-01T14:06:14.349Z,7.43
2023-01-01T14:08:43.091Z,6.97
2023-01-01T14:11:25.041Z,6.32
2023-01-01T14:13:54.066Z,5.40
2023-01-01T14:16:28.281Z,6.15
2023-01-01T14:19:00.127Z,6.10
2023-01-01T14:21:33.651Z,6.30
2023-01-01T14:24:06.472Z,6.00
2023-01-01T14:26:40.733Z,6.00
2023-01-01T14:29:23.224Z,6.05
2023-01-01T14:31:53.005Z,6.20
2023-01-01T14:34:26.209Z,5.97
2023-01-01T14:36:57.706Z,5.97
2023-01-01T14:39:31.314Z,5.57
2023-01-01T14:42:06.249Z,5.10
2023-01-01T14:44:38.713Z,5.30
2023-01-01T14:47:23.031Z,5.55
2023-01-01T14:49:53.452Z,5.13
2023-01-01T14:52:26.779Z,5.22
2023-01-01T14:55:00.172Z,5.55
2023-01-01T14:57:33.675Z,4.88
2023-01-01T15:00:04.525Z,8.00
2023-01-01T15:02:42.675Z,8.18
2023-01-01T15:05:34.843Z,6.47
2023-01-01T15:08:07.684Z,6.22
2023-01-01T15:10:40.468Z,6.07
2023-01-01T15:13:23.064Z,5.90
2023-01-01T15:15:54.255Z,5.57
2023-01-01T15:18:41.195Z,5.75
2023-01-01T15:21:18.790Z,5.18
2023-01-01T15:23:56.084Z,6.43
2023-01-01T15:26:44.271Z,6.20
2023-01-01T15:29:26.163Z,5.80
2023-01-01T15:32:01.528Z,4.68
2023-01-01T15:34:33.963Z,4.85
2023-01-01T15:37:16.275Z,5.35
2023-01-01T15:39:53.429Z,5.00
2023-01-01T15:42:35.579Z,4.50
2023-01-01T15:45:23.597Z,5.05
2023-01-01T15:47:55.501Z,5.25
2023-01-01T15:50:27.702Z,4.80
2023-01-01T15:53:00.604Z,4.43
2023-01-01T15:55:35.858Z,4.50
2023-01-01T15:58:08.614Z,4.97
2023-01-01T16:00:43.191Z,4.15
2023-01-01T16:03:22.051Z,4.20
2023-01-01T16:08:26.166Z,5.07
2023-01-01T16:10:56.716Z,4.00
2023-01-01T16:13:31.799Z,4.78
2023-01-01T16:16:21.816Z,4.90
2023-01-01T16:18:54.610Z,5.13
2023-01-01T16:21:27.943Z,4.72
2023-01-01T16:23:58.771Z,4.72
2023-01-01T16:26:32.302Z,4.20
2023-01-01T16:29:02.545Z,4.88
2023-01-01T16:31:34.010Z,4.85
2023-01-01T16:34:09.484Z,4.65
2023-01-01T16:36:39.341Z,4.72
2023-01-01T16:39:12.944Z,4.70
2023-01-01T16:41:44.615Z,5.68
2023-01-01T16:44:17.104Z,26.35
2023-01-01T16:46:48.513Z,25.42
2023-01-01T16:49:24.512Z,17.27
2023-01-01T16:51:56.825Z,14.35
2023-01-01T16:54:26.619Z,12.00
2023-01-01T16:57:01.308Z,10.40
2023-01-01T16:59:45.075Z,7.55
2023-01-01T17:02:17.970Z,5.47
2023-01-01T17:04:51.378Z,5.93
2023-01-01T17:07:22.928Z,6.47
2023-01-01T17:09:52.920Z,5.40
2023-01-01T17:12:23.123Z,5.00
2023-01-01T17:14:54.196Z,5.10
2023-01-01T17:17:27.070Z,4.97
2023-01-01T17:19:57.428Z,5.57
2023-01-01T17:22:33.879Z,4.72
2023-01-01T17:25:04.762Z,4.85
2023-01-01T17:27:37.008Z,4.68
2023-01-01T17:30:15.613Z,5.43
2023-01-01T17:33:05.699Z,5.25
2023-01-01T17:35:47.058Z,5.05
2023-01-01T17:38:21.549Z,4.80
2023-01-01T17:40:51.993Z,4.43
2023-01-01T17:43:22.191Z,4.65
2023-01-01T17:45:52.468Z,4.68
2023-01-01T17:48:24.465Z,4.35
2023-01-01T17:50:54.684Z,4.55
2023-01-01T17:53:24.691Z,5.07
2023-01-01T17:55:56.643Z,4.13
2023-01-01T17:58:32.157Z,4.80
2023-01-01T18:01:25.521Z,5.25
2023-01-01T18:03:58.969Z,4.75
2023-01-01T18:06:37.169Z,4.25
2023-01-01T18:09:13.402Z,4.53
2023-01-01T18:11:44.109Z,4.85
2023-01-01T18:14:19.597Z,4.95
2023-01-01T18:16:55.749Z,4.75
2023-01-01T18:19:28.169Z,4.93
2023-01-01T18:21:58.343Z,5.65
2023-01-01T18:24:28.516Z,5.00
2023-01-01T18:26:58.562Z,5.93
2023-01-01T18:29:28.728Z,5.68
2023-01-01T18:31:59.570Z,5.25
2023-01-01T18:34:30.940Z,6.00
2023-01-01T18:37:00.934Z,6.25
2023-01-01T18:39:35.648Z,5.82
2023-01-01T18:42:34.316Z,6.03
2023-01-01T18:45:16.914Z,6.15
2023-01-01T18:47:49.617Z,6.20
2023-01-01T18:50:27.174Z,6.95
2023-01-01T18:53:02.232Z,5.72
2023-01-01T18:55:33.370Z,6.45
2023-01-01T18:58:16.717Z,6.47
2023-01-01T19:00:47.020Z,5.78
2023-01-01T19:03:19.595Z,5.45
2023-01-01T19:05:51.239Z,5.80
2023-01-01T19:08:24.641Z,5.63
2023-01-01T19:10:57.390Z,6.00
2023-01-01T19:13:31.503Z,6.15
2023-01-01T19:16:05.108Z,5.90
2023-01-01T19:18:36.344Z,6.63
2023-01-01T19:21:21.539Z,7.15
2023-01-01T19:23:53.451Z,7.72
2023-01-01T19:26:27.665Z,7.10
2023-01-01T19:28:58.580Z,7.68
2023-01-01T19:31:28.839Z,7.50
2023-01-01T19:33:58.864Z,8.18
2023-01-01T19:36:30.681Z,7.78
2023-01-01T19:39:00.636Z,7.97
2023-01-01T19:41:30.721Z,7.88
2023-01-01T19:44:00.766Z,7.60
2023-01-01T19:46:34.294Z,6.85
2023-01-01T19:49:06.069Z,7.50
2023-01-01T19:51:37.975Z,8.02
2023-01-01T19:54:08.910Z,7.07
2023-01-01T19:56:38.919Z,7.53
2023-01-01T19:59:09.809Z,7.03
2023-01-01T20:01:40.291Z,7.63
2023-01-01T20:04:10.508Z,6.93
2023-01-01T20:06:45.023Z,7.07
2023-01-01T20:09:15.070Z,7.43
2023-01-01T20:11:47.061Z,7.10
2023-01-01T20:14:23.041Z,7.28
2023-01-01T20:16:59.655Z,7.00
2023-01-01T20:19:29.144Z,6.80
2023-01-01T20:22:17.941Z,6.93
2023-01-01T20:24:47.168Z,6.63
2023-01-01T20:27:22.389Z,7.15
2023-01-01T20:29:51.556Z,6.28
2023-01-01T20:32:22.369Z,6.80
2023-01-01T20:34:53.076Z,6.28
2023-01-01T20:37:38.226Z,6.57
2023-01-01T20:40:09.259Z,6.38
2023-01-01T20:42:38.649Z,5.93
2023-01-01T20:45:09.689Z,6.70
2023-01-01T20:47:41.236Z,5.70
2023-01-01T20:50:10.771Z,5.93
2023-01-01T20:52:42.321Z,5.35
2023-01-01T20:55:11.502Z,5.82
2023-01-01T20:57:41.835Z,5.55
2023-01-01T21:00:25.422Z,5.90
2023-01-01T21:02:54.381Z,5.65
2023-01-01T21:07:53.538Z,5.38
2023-01-01T21:10:22.482Z,5.05
2023-01-01T21:15:21.067Z,4.55
2023-01-01T21:17:50.175Z,5.63
2023-01-01T21:20:19.669Z,6.05
2023-01-01T21:22:48.877Z,4.82
2023-01-01T21:25:50.260Z,6.00
2023-01-01T21:28:14.725Z,4.60
2023-01-01T21:30:50.700Z,4.72
2023-01-01T21:33:30.149Z,5.57
2023-01-01T21:35:59.412Z,4.00
2023-01-01T21:38:31.175Z,5.30
2023-01-01T21:41:03.880Z,4.85
2023-01-01T21:43:40.404Z,3.83
2023-01-01T21:46:33.109Z,4.30
2023-01-01T21:49:05.411Z,4.47
2023-01-01T21:51:38.478Z,4.22
2023-01-01T21:54:23.515Z,4.00
2023-01-01T21:56:59.088Z,3.20
2023-01-01T21:59:37.088Z,4.18
2023-01-01T22:02:39.839Z,3.60
2023-01-01T22:05:36.269Z,3.33
2023-01-01T22:08:23.754Z,3.72
2023-01-01T22:10:52.803Z,3.28
2023-01-01T22:13:24.221Z,3.38
2023-01-01T22:15:52.880Z,3.45
2023-01-01T22:18:25.714Z,3.58
2023-01-01T22:20:58.722Z,3.10
2023-01-01T22:23:36.746Z,2.53
2023-01-01T22:26:17.891Z,2.30
2023-01-01T22:28:52.697Z,2.20
2023-01-01T22:31:25.880Z,2.20
2023-01-01T22:34:00.210Z,2.58
2023-01-01T22:36:32.074Z,2.70
2023-01-01T22:39:05.722Z,2.15
2023-01-01T22:41:36.542Z,2.20
2023-01-01T22:44:10.639Z,2.58
2023-01-01T22:46:42.016Z,1.50
2023-01-01T22:49:19.515Z,1.35
2023-01-01T22:51:50.430Z,1.20
2023-01-01T22:54:34.456Z,0.77
2023-01-01T22:57:12.705Z,1.13
2023-01-01T22:59:46.386Z,0.88
2023-01-01T23:02:17.074Z,0.70
2023-01-01T23:04:47.350Z,0.80
2023-01-01T23:07:16.015Z,0.93
2023-01-01T23:09:44.879Z,1.27
2023-01-01T23:12:14.405Z,1.08
2023-01-01T23:15:00.579Z,1.50
2023-01-01T23:17:30.685Z,1.88
2023-01-01T23:19:59.569Z,2.00
2023-01-01T23:22:36.469Z,1.45
2023-01-01T23:25:06.689Z,1.42
2023-01-01T23:27:38.836Z,1.35
2023-01-01T23:30:08.613Z,1.20
2023-01-01T23:32:55.176Z,1.60
2023-01-01T23:35:25.080Z,1.58
2023-01-01T23:38:02.182Z,1.27
2023-01-01T23:40:31.099Z,0.80
2023-01-01T23:43:02.258Z,0.93
2023-01-01T23:45:38.830Z,0.85
2023-01-01T23:48:14.949Z,1.15
2023-01-01T23:50:45.457Z,0.80
2023-01-01T23:53:14.244Z,1.20
2023-01-01T23:58:13.520Z,0.90
